Time;durP1;ratioP1;P1;durP2;ratioP2;P2;SDS_P1;SDS_P2;PMS_P1;PMS_P2;Temp;Humidity;BMP_temperature;BMP_pressure;BME280_temperature;BME280_humidity;BME280_pressure;Samples;Min_cycle;Max_cycle;Signal;HPM_P1;HPM_P2
2023/01/16 00:00:19;;;;;;;14.35;6.32;;;3.30;99.90;;;;;;4994891;28;20202;-90
2023/01/16 00:02:46;;;;;;;3.58;2.35;;;3.10;99.90;;;;;;5000595;28;20260;-91
2023/01/16 00:05:13;;;;;;;15.02;6.25;;;3.20;99.90;;;;;;5000691;28;20197;-92
2023/01/16 00:07:40;;;;;;;11.48;4.20;;;3.20;99.90;;;;;;4984875;28;20190;-90
2023/01/16 00:10:08;;;;;;;6.30;3.22;;;3.10;99.90;;;;;;4965153;28;20201;-88
2023/01/16 00:12:39;;;;;;;5.65;3.00;;;3.10;99.90;;;;;;4965895;28;20309;-91
2023/01/16 00:15:07;;;;;;;16.80;9.43;;;3.20;99.90;;;;;;4965162;28;20229;-89
2023/01/16 00:17:35;;;;;;;7.43;3.80;;;3.20;99.90;;;;;;4965798;28;20252;-89
2023/01/16 00:20:04;;;;;;;6.50;4.00;;;3.20;99.90;;;;;;4999185;28;20257;-91
2023/01/16 00:22:33;;;;;;;8.35;4.50;;;3.10;99.90;;;;;;5001094;28;20211;-91
2023/01/16 00:25:01;;;;;;;6.63;4.60;;;3.10;99.90;;;;;;4999816;28;20199;-90
2023/01/16 00:27:29;;;;;;;8.82;5.15;;;2.90;99.90;;;;;;4983982;28;20299;-86
2023/01/16 00:29:59;;;;;;;6.85;4.00;;;2.80;99.90;;;;;;4999529;28;20199;-89
2023/01/16 00:32:26;;;;;;;4.45;2.50;;;2.80;99.90;;;;;;4999535;28;20198;-86
2023/01/16 00:34:53;;;;;;;11.85;4.80;;;2.80;99.90;;;;;;5016678;28;20196;-89
2023/01/16 00:37:21;;;;;;;13.55;3.67;;;2.80;99.90;;;;;;4999586;28;20215;-88
2023/01/16 00:39:49;;;;;;;3.25;2.10;;;2.60;99.90;;;;;;5000415;28;20323;-88
2023/01/16 00:42:18;;;;;;;4.38;2.58;;;2.50;99.90;;;;;;4993064;28;20336;-88
2023/01/16 00:44:50;;;;;;;3.05;2.13;;;2.70;99.90;;;;;;4990313;28;20621;-88
2023/01/16 00:47:19;;;;;;;2.05;1.70;;;2.60;99.90;;;;;;4990523;28;20205;-89
2023/01/16 00:49:47;;;;;;;3.83;1.48;;;2.70;99.90;;;;;;4957345;28;20217;-87
2023/01/16 00:52:16;;;;;;;1.60;1.10;;;2.60;99.90;;;;;;4990311;28;20217;-87
2023/01/16 00:54:49;;;;;;;1.33;1.20;;;2.60;99.90;;;;;;4972218;28;20211;-89
2023/01/16 00:57:18;;;;;;;3.63;1.63;;;2.70;99.90;;;;;;4973622;28;20209;-89
2023/01/16 00:59:46;;;;;;;2.13;1.58;;;2.80;99.90;;;;;;4977316;28;20240;-88
2023/01/16 01:02:18;;;;;;;1.80;1.50;;;2.80;99.90;;;;;;4994788;28;20285;-84
2023/01/16 01:04:45;;;;;;;2.00;1.48;;;2.60;99.90;;;;;;4980383;28;20204;-88
2023/01/16 01:07:20;;;;;;;1.95;1.75;;;2.60;99.90;;;;;;5004872;28;20204;-90
2023/01/16 01:09:47;;;;;;;2.78;1.58;;;2.70;99.90;;;;;;4974461;28;20206;-88
2023/01/16 01:12:17;;;;;;;2.33;2.05;;;2.80;99.90;;;;;;4998448;28;20181;-89
2023/01/16 01:14:48;;;;;;;4.22;1.85;;;2.60;99.90;;;;;;4982198;28;20211;-86
2023/01/16 01:17:17;;;;;;;2.17;1.40;;;2.70;99.90;;;;;;4998652;28;20204;-89
2023/01/16 01:19:47;;;;;;;2.05;1.85;;;2.60;99.90;;;;;;4999040;28;20220;-89
2023/01/16 01:22:19;;;;;;;2.05;1.80;;;2.60;99.90;;;;;;4997824;28;20251;-89
2023/01/16 01:24:49;;;;;;;2.70;2.08;;;2.70;99.90;;;;;;4981809;28;20260;-87
2023/01/16 01:27:17;;;;;;;2.45;1.70;;;2.70;99.90;;;;;;4997611;28;20202;-87
2023/01/16 01:29:44;;;;;;;3.05;1.25;;;2.60;99.90;;;;;;5309279;23;20283;-90
2023/01/16 01:35:00;;;;;;;1.80;1.70;;;2.70;99.90;;;;;;4900922;29;20221;-89
2023/01/16 01:37:29;;;;;;;2.25;1.52;;;2.70;99.90;;;;;;4904281;29;20192;-91
2023/01/16 01:39:58;;;;;;;3.10;2.33;;;2.90;99.90;;;;;;4917148;29;20207;-90
2023/01/16 01:42:44;;;;;;;2.42;2.08;;;2.90;99.90;;;;;;4922862;29;20230;-89
2023/01/16 01:45:15;;;;;;;3.67;2.00;;;2.90;99.90;;;;;;4907727;29;20215;-90
2023/01/16 01:47:49;;;;;;;2.50;1.88;;;2.90;99.90;;;;;;4909085;29;20207;-89
2023/01/16 01:50:39;;;;;;;8.05;6.22;;;2.90;99.90;;;;;;4919250;29;20191;-88
2023/01/16 01:53:32;;;;;;;13.63;6.45;;;3.00;99.90;;;;;;4921839;29;20176;-90
2023/01/16 01:56:05;;;;;;;5.65;3.85;;;2.90;99.90;;;;;;4890978;29;20214;-86
2023/01/16 01:58:34;;;;;;;7.30;2.90;;;2.90;99.90;;;;;;4905471;29;20242;-88
2023/01/16 02:01:02;;;;;;;5.55;3.20;;;2.90;99.90;;;;;;4889485;29;20203;-89
2023/01/16 02:03:42;;;;;;;6.47;3.33;;;2.80;99.90;;;;;;4895644;29;20424;-90
2023/01/16 02:06:17;;;;;;;6.28;2.67;;;2.80;99.90;;;;;;4897637;29;20211;-88
2023/01/16 02:08:44;;;;;;;8.23;4.75;;;2.80;99.90;;;;;;4898081;29;20207;-85
2023/01/16 02:11:27;;;;;;;4.80;3.15;;;2.70;99.90;;;;;;4890230;29;20209;-88
2023/01/16 02:14:06;;;;;;;3.30;2.50;;;2.90;99.90;;;;;;4901762;29;20214;-88
2023/01/16 02:19:42;;;;;;;5.45;2.42;;;2.60;99.90;;;;;;4894234;29;20217;-89
2023/01/16 02:22:23;;;;;;;7.90;2.17;;;2.60;99.90;;;;;;4887608;29;20284;-90
2023/01/16 02:25:25;;;;;;;5.30;2.92;;;2.70;99.90;;;;;;4892037;29;20220;-90
2023/01/16 02:28:11;;;;;;;2.17;1.98;;;2.70;99.90;;;;;;4894380;29;20209;-88
2023/01/16 02:31:29;;;;;;;2.35;2.15;;;2.70;99.90;;;;;;4854759;29;20208;-88
2023/01/16 02:34:20;;;;;;;4.93;1.88;;;2.70;99.90;;;;;;4852458;29;20452;-90
2023/01/16 02:36:50;;;;;;;2.25;2.05;;;2.70;99.90;;;;;;4893286;29;20221;-90
2023/01/16 02:39:48;;;;;;;2.38;2.17;;;2.50;99.90;;;;;;4894997;29;20209;-88
2023/01/16 02:42:39;;;;;;;2.00;1.80;;;2.50;99.90;;;;;;4891184;29;20228;-86
2023/01/16 02:45:52;;;;;;;3.00;2.20;;;2.40;99.90;;;;;;4897568;29;20214;-85
2023/01/16 02:49:03;;;;;;;8.77;2.78;;;2.40;99.90;;;;;;4898716;29;20511;-84
2023/01/16 02:51:59;;;;;;;3.15;1.65;;;2.40;99.90;;;;;;4890624;29;20258;-86
2023/01/16 02:54:52;;;;;;;7.07;2.22;;;2.50;99.90;;;;;;4896168;29;20222;-89
2023/01/16 02:57:21;;;;;;;1.88;1.70;;;2.30;99.90;;;;;;4896648;29;20236;-89
2023/01/16 02:59:50;;;;;;;1.98;1.88;;;2.30;99.90;;;;;;4904515;29;20239;-89
2023/01/16 03:02:17;;;;;;;5.80;2.05;;;2.40;99.90;;;;;;4869749;29;20238;-88
2023/01/16 03:04:47;;;;;;;2.90;1.50;;;2.40;99.90;;;;;;4909220;29;20216;-89
2023/01/16 03:07:57;;;;;;;1.83;1.67;;;2.50;99.90;;;;;;4897433;29;20210;-91
2023/01/16 03:10:48;;;;;;;2.55;1.55;;;2.50;99.90;;;;;;4913076;29;20214;-90
2023/01/16 03:13:18;;;;;;;2.10;1.88;;;2.50;99.90;;;;;;4920229;29;20211;-89
2023/01/16 03:16:06;;;;;;;10.60;1.40;;;2.60;99.90;;;;;;4907343;29;20213;-88
2023/01/16 03:18:38;;;;;;;3.42;1.55;;;2.60;99.90;;;;;;4896478;29;20218;-87
2023/01/16 03:21:37;;;;;;;1.50;1.40;;;2.60;99.90;;;;;;4896694;29;20246;-85
2023/01/16 03:24:23;;;;;;;3.60;2.33;;;2.50;99.90;;;;;;4896470;29;20259;-86
2023/01/16 03:26:58;;;;;;;2.45;1.50;;;2.70;99.90;;;;;;4912762;29;20216;-86
2023/01/16 03:29:46;;;;;;;2.45;1.50;;;2.70;99.90;;;;;;4896358;29;20200;-86
2023/01/16 03:32:45;;;;;;;4.57;1.95;;;2.60;99.90;;;;;;4877906;29;20195;-87
2023/01/16 03:35:34;;;;;;;1.88;1.70;;;2.40;99.90;;;;;;4918139;29;20203;-88
2023/01/16 03:38:06;;;;;;;4.93;2.20;;;2.40;99.90;;;;;;4914520;29;20234;-88
2023/01/16 03:40:39;;;;;;;7.22;4.00;;;2.50;99.90;;;;;;4877084;29;20211;-87
2023/01/16 03:43:28;;;;;;;5.07;3.47;;;2.70;99.90;;;;;;4877664;29;20219;-88
2023/01/16 03:46:00;;;;;;;14.43;8.57;;;2.70;99.90;;;;;;4877935;29;20267;-89
2023/01/16 03:49:12;;;;;;;19.70;11.68;;;2.70;99.90;;;;;;4896621;29;20225;-87
2023/01/16 03:51:45;;;;;;;18.15;8.77;;;2.70;99.90;;;;;;4881522;29;20216;-86
2023/01/16 03:54:37;;;;;;;6.35;3.95;;;2.60;99.90;;;;;;4914607;29;20205;-87
2023/01/16 03:57:16;;;;;;;14.98;6.70;;;2.50;99.90;;;;;;4915450;29;20219;-86
2023/01/16 03:59:46;;;;;;;27.67;14.20;;;2.70;99.90;;;;;;4913548;29;20487;-88
2023/01/16 04:02:46;;;;;;;35.55;15.13;;;2.70;99.90;;;;;;4897932;29;20299;-88
2023/01/16 04:05:24;;;;;;;10.90;6.35;;;2.70;99.90;;;;;;4902240;29;20206;-88
2023/01/16 04:08:06;;;;;;;5.32;2.40;;;2.60;99.90;;;;;;4877513;29;20248;-84
2023/01/16 04:10:36;;;;;;;5.13;2.55;;;2.50;99.90;;;;;;4887190;29;20212;-88
2023/01/16 04:13:08;;;;;;;5.63;3.05;;;2.50;99.90;;;;;;4902742;29;20274;-86
2023/01/16 04:15:41;;;;;;;8.25;2.05;;;2.50;99.90;;;;;;4898794;29;20371;-90
2023/01/16 04:18:11;;;;;;;2.33;1.90;;;2.60;99.90;;;;;;4913628;29;20235;-84
2023/01/16 04:20:41;;;;;;;2.67;1.88;;;2.50;99.90;;;;;;4909348;29;20208;-89
2023/01/16 04:23:09;;;;;;;6.35;4.05;;;2.60;99.90;;;;;;4908322;29;20559;-90
2023/01/16 04:25:37;;;;;;;4.53;2.45;;;2.50;99.90;;;;;;4918599;29;20215;-88
2023/01/16 04:28:04;;;;;;;2.80;2.35;;;2.40;99.90;;;;;;4901117;29;20256;-90
2023/01/16 04:30:31;;;;;;;3.47;2.22;;;2.50;99.90;;;;;;4881785;29;20207;-87
2023/01/16 04:33:04;;;;;;;2.38;2.10;;;2.40;99.90;;;;;;4899089;29;20220;-87
2023/01/16 04:35:34;;;;;;;3.85;3.53;;;2.50;99.90;;;;;;4894153;29;20228;-87
2023/01/16 04:38:04;;;;;;;3.67;1.90;;;2.60;99.90;;;;;;4896081;29;20277;-87
2023/01/16 04:40:32;;;;;;;6.05;2.30;;;2.60;99.90;;;;;;4896865;29;20230;-87
2023/01/16 04:42:59;;;;;;;1.85;1.75;;;2.60;99.90;;;;;;4902827;29;20242;-88
2023/01/16 04:45:26;;;;;;;2.35;1.88;;;2.50;99.90;;;;;;4902058;29;20208;-88
2023/01/16 04:47:54;;;;;;;6.70;3.95;;;2.60;99.90;;;;;;4908364;29;20267;-86
2023/01/16 04:50:21;;;;;;;5.65;3.75;;;2.60;99.90;;;;;;4912522;29;20212;-86
2023/01/16 04:52:55;;;;;;;4.38;3.00;;;2.60;99.90;;;;;;4899369;29;20218;-85
2023/01/16 04:55:22;;;;;;;3.40;2.50;;;2.50;99.90;;;;;;4887762;29;20204;-86
2023/01/16 04:57:50;;;;;;;2.45;2.25;;;2.40;99.90;;;;;;4913657;29;20250;-89
2023/01/16 05:00:18;;;;;;;3.90;1.40;;;2.20;99.90;;;;;;4911372;29;20242;-87
2023/01/16 05:02:45;;;;;;;1.75;1.65;;;2.20;99.90;;;;;;4901468;29;20547;-87
2023/01/16 05:05:16;;;;;;;1.23;1.15;;;2.20;99.90;;;;;;4901478;29;20213;-88
2023/01/16 05:07:43;;;;;;;3.88;2.33;;;2.30;99.90;;;;;;4899699;29;20215;-87
2023/01/16 05:10:12;;;;;;;2.00;1.75;;;2.30;99.90;;;;;;4895668;29;20217;-87
2023/01/16 05:12:39;;;;;;;1.80;1.70;;;2.40;99.90;;;;;;4906373;29;20210;-86
2023/01/16 05:15:09;;;;;;;2.28;1.50;;;2.70;99.90;;;;;;4905026;29;20271;-86
2023/01/16 05:17:36;;;;;;;4.45;1.98;;;2.50;99.90;;;;;;4903928;29;20214;-87
2023/01/16 05:20:09;;;;;;;1.45;1.10;;;2.30;99.90;;;;;;4900315;29;20267;-88
2023/01/16 05:22:39;;;;;;;4.15;2.10;;;2.30;99.90;;;;;;4896674;29;20242;-87
2023/01/16 05:25:11;;;;;;;3.38;1.67;;;2.30;99.90;;;;;;4892282;29;20330;-87
2023/01/16 05:27:42;;;;;;;3.08;1.77;;;2.20;99.90;;;;;;4901618;29;20214;-87
2023/01/16 05:30:11;;;;;;;1.80;1.70;;;2.20;99.90;;;;;;4894191;29;20297;-87
2023/01/16 05:32:47;;;;;;;3.38;2.22;;;2.20;99.90;;;;;;4902976;29;20218;-87
2023/01/16 05:35:15;;;;;;;3.28;2.53;;;2.20;99.90;;;;;;4903177;29;20212;-86
2023/01/16 05:37:43;;;;;;;6.50;3.13;;;2.40;99.90;;;;;;4902737;29;20271;-86
2023/01/16 05:40:14;;;;;;;2.25;1.88;;;2.50;99.90;;;;;;4904504;29;20214;-85
2023/01/16 05:42:47;;;;;;;4.50;2.40;;;2.50;99.90;;;;;;4895856;29;20306;-89
2023/01/16 05:45:16;;;;;;;2.80;2.55;;;2.50;99.90;;;;;;4895813;29;20282;-86
2023/01/16 05:47:46;;;;;;;2.90;2.30;;;2.40;99.90;;;;;;4902789;29;20247;-86
2023/01/16 05:50:14;;;;;;;6.28;2.78;;;2.50;99.90;;;;;;4898367;29;20220;-87
2023/01/16 05:52:41;;;;;;;6.53;2.42;;;2.40;99.90;;;;;;4888042;29;20211;-87
2023/01/16 05:57:47;;;;;;;4.97;2.38;;;2.60;99.90;;;;;;4937702;29;20212;-85
2023/01/16 06:00:23;;;;;;;2.90;2.60;;;2.50;99.90;;;;;;4918244;29;20206;-88
2023/01/16 06:02:51;;;;;;;5.60;2.30;;;2.40;99.90;;;;;;4942123;28;20219;-87
2023/01/16 06:05:18;;;;;;;2.55;1.70;;;2.50;99.90;;;;;;4927857;29;20203;-87
2023/01/16 06:07:47;;;;;;;6.68;2.22;;;2.50;99.90;;;;;;4929495;29;20217;-86
2023/01/16 06:10:15;;;;;;;2.78;1.40;;;2.60;99.90;;;;;;4934618;29;20218;-87
2023/01/16 06:12:49;;;;;;;3.90;2.05;;;2.60;99.90;;;;;;4941577;29;20190;-86
2023/01/16 06:15:17;;;;;;;4.70;1.88;;;2.50;99.90;;;;;;4947212;29;20191;-86
2023/01/16 06:17:46;;;;;;;4.57;1.77;;;2.60;99.90;;;;;;4941376;28;20190;-86
2023/01/16 06:20:13;;;;;;;3.45;1.67;;;2.50;99.90;;;;;;4928879;29;20221;-88
2023/01/16 06:22:41;;;;;;;3.80;2.55;;;2.40;99.90;;;;;;4934680;29;20264;-86
2023/01/16 06:25:12;;;;;;;4.88;2.30;;;2.40;99.90;;;;;;4923971;29;20710;-86
2023/01/16 06:27:39;;;;;;;2.67;1.67;;;2.40;99.90;;;;;;4933250;29;20219;-87
2023/01/16 06:30:09;;;;;;;3.17;1.90;;;2.50;99.90;;;;;;4919374;29;20202;-87
2023/01/16 06:32:37;;;;;;;1.73;1.60;;;2.50;99.90;;;;;;4916415;29;20278;-87
2023/01/16 06:35:05;;;;;;;3.45;1.88;;;2.50;99.90;;;;;;4928031;29;20219;-87
2023/01/16 06:37:33;;;;;;;2.95;1.80;;;2.50;99.90;;;;;;4940459;29;20217;-86
2023/01/16 06:40:05;;;;;;;8.13;2.50;;;2.60;99.90;;;;;;4933627;29;20207;-86
2023/01/16 06:42:33;;;;;;;3.90;1.90;;;2.50;99.90;;;;;;4932855;29;20206;-87
2023/01/16 06:45:01;;;;;;;2.10;1.90;;;2.60;99.90;;;;;;4931817;29;20222;-87
2023/01/16 06:47:28;;;;;;;4.40;3.25;;;2.50;99.90;;;;;;4937323;29;20213;-88
2023/01/16 06:49:59;;;;;;;3.63;2.10;;;2.50;99.90;;;;;;4937626;29;20205;-88
2023/01/16 06:52:26;;;;;;;2.08;1.63;;;2.70;99.90;;;;;;4930952;29;20275;-86
2023/01/16 06:54:53;;;;;;;2.85;1.85;;;2.70;99.90;;;;;;4931663;29;20320;-85
2023/01/16 06:57:20;;;;;;;2.60;2.13;;;2.80;99.90;;;;;;4934526;29;20244;-87
2023/01/16 06:59:50;;;;;;;2.40;1.88;;;2.80;99.90;;;;;;4940809;29;20210;-86
2023/01/16 07:02:17;;;;;;;3.33;2.00;;;2.90;99.90;;;;;;4923613;29;20211;-87
2023/01/16 07:04:47;;;;;;;5.03;1.67;;;3.00;99.90;;;;;;4938823;29;20238;-86
2023/01/16 07:07:16;;;;;;;3.40;1.85;;;3.10;99.90;;;;;;4933597;29;20230;-87
2023/01/16 07:09:45;;;;;;;6.68;1.90;;;3.10;99.90;;;;;;5014547;23;20276;-86
2023/01/16 07:12:13;;;;;;;1.60;1.50;;;3.10;99.90;;;;;;5072779;23;20256;-87
2023/01/16 07:23:21;;;;;;;2.35;1.40;;;3.10;99.90;;;;;;4902120;29;20228;-87
2023/01/16 07:25:54;;;;;;;2.63;2.10;;;3.10;99.90;;;;;;4881200;29;20190;-88
2023/01/16 07:28:21;;;;;;;1.45;1.00;;;3.20;99.90;;;;;;4892166;29;20812;-90
2023/01/16 07:30:50;;;;;;;7.75;2.70;;;3.20;99.90;;;;;;5130034;23;20313;-89
2023/01/16 07:33:20;;;;;;;4.50;1.70;;;3.30;99.90;;;;;;4988370;28;20214;-89
2023/01/16 07:35:47;;;;;;;3.78;1.90;;;3.30;99.90;;;;;;4970324;28;20206;-88
2023/01/16 07:38:18;;;;;;;3.35;2.30;;;3.40;99.90;;;;;;4960808;29;20201;-89
2023/01/16 07:40:45;;;;;;;5.68;2.60;;;3.30;99.90;;;;;;4973549;28;20244;-87
2023/01/16 07:43:19;;;;;;;5.20;1.80;;;3.30;99.90;;;;;;4971710;28;20258;-87
2023/01/16 07:45:51;;;;;;;4.20;2.17;;;3.30;99.90;;;;;;4968471;28;20209;-86
2023/01/16 07:48:24;;;;;;;3.05;1.88;;;3.40;99.90;;;;;;4955782;29;20205;-88
2023/01/16 07:50:57;;;;;;;2.70;2.08;;;3.30;99.90;;;;;;4964991;29;20224;-85
2023/01/16 07:53:26;;;;;;;7.05;2.75;;;3.40;99.90;;;;;;4958186;29;20218;-86
2023/01/16 07:55:56;;;;;;;4.70;1.77;;;3.50;99.90;;;;;;4963644;28;20270;-86
2023/01/16 07:58:24;;;;;;;2.33;1.50;;;3.60;99.90;;;;;;4965387;28;20210;-86
2023/01/16 08:00:56;;;;;;;7.38;2.60;;;3.70;99.90;;;;;;4975127;28;20213;-86
2023/01/16 08:03:24;;;;;;;2.10;1.30;;;3.70;99.90;;;;;;4980359;28;20248;-86
2023/01/16 08:05:58;;;;;;;3.63;1.73;;;3.80;99.90;;;;;;4954237;29;20206;-85
2023/01/16 08:08:26;;;;;;;2.85;2.08;;;3.80;99.90;;;;;;4977930;28;20285;-85
2023/01/16 08:10:55;;;;;;;4.65;2.60;;;3.80;99.90;;;;;;4973319;28;20207;-86
2023/01/16 08:13:25;;;;;;;5.93;4.72;;;3.90;99.90;;;;;;4962444;28;20214;-85
2023/01/16 08:15:54;;;;;;;4.53;3.13;;;3.90;99.90;;;;;;4978908;28;20213;-87
2023/01/16 08:18:24;;;;;;;5.13;3.50;;;3.90;99.90;;;;;;4969055;28;20281;-88
2023/01/16 08:20:51;;;;;;;6.70;3.80;;;4.10;99.90;;;;;;4960771;29;20202;-87
2023/01/16 08:23:19;;;;;;;4.85;4.35;;;4.40;99.90;;;;;;4973879;28;20219;-86
2023/01/16 08:25:49;;;;;;;8.20;3.63;;;4.70;99.90;;;;;;4971110;28;20250;-86
2023/01/16 08:28:17;;;;;;;8.93;3.55;;;4.80;99.90;;;;;;4974658;28;20201;-88
2023/01/16 08:30:44;;;;;;;8.20;4.70;;;4.80;99.90;;;;;;4984610;28;20209;-88
2023/01/16 08:33:12;;;;;;;9.30;2.95;;;4.80;99.90;;;;;;4978173;28;20219;-88
2023/01/16 08:35:39;;;;;;;7.18;3.17;;;4.70;99.90;;;;;;4992155;28;20208;-88
2023/01/16 08:38:06;;;;;;;7.03;2.72;;;4.70;99.90;;;;;;4975388;28;20214;-86
2023/01/16 08:40:33;;;;;;;7.30;2.45;;;4.80;99.90;;;;;;4994811;28;20226;-84
2023/01/16 08:51:25;;;;;;;7.15;2.97;;;4.70;99.90;;;;;;4968149;28;20234;-86
2023/01/16 08:53:54;;;;;;;4.13;2.67;;;4.70;99.90;;;;;;4972443;28;20456;-88
2023/01/16 08:56:22;;;;;;;9.77;2.28;;;4.70;99.90;;;;;;4976396;28;20218;-88
2023/01/16 08:58:49;;;;;;;8.07;1.92;;;4.80;99.90;;;;;;4977552;28;20191;-86
2023/01/16 09:01:19;;;;;;;3.42;1.17;;;4.80;99.90;;;;;;4975503;29;20202;-85
2023/01/16 09:03:46;;;;;;;5.65;1.92;;;4.90;99.90;;;;;;4982772;28;20284;-88
2023/01/16 09:06:13;;;;;;;1.80;1.35;;;4.90;99.90;;;;;;4962287;29;20195;-83
2023/01/16 09:08:41;;;;;;;3.45;1.50;;;5.10;99.90;;;;;;4969334;28;20210;-85
2023/01/16 09:14:00;;;;;;;2.00;1.80;;;5.20;99.90;;;;;;4971438;28;20506;-86
2023/01/16 09:16:28;;;;;;;4.43;1.48;;;5.30;99.90;;;;;;4975274;28;20214;-84
2023/01/16 09:18:56;;;;;;;3.05;1.50;;;5.30;99.90;;;;;;4971464;28;20201;-83
2023/01/16 09:21:25;;;;;;;3.88;1.80;;;5.30;99.90;;;;;;4990423;28;20203;-84
2023/01/16 09:23:53;;;;;;;1.73;1.60;;;5.30;99.90;;;;;;4943715;29;20298;-84
2023/01/16 09:26:22;;;;;;;4.68;1.60;;;5.30;99.90;;;;;;4942881;29;20212;-83
2023/01/16 09:28:53;;;;;;;2.00;1.50;;;5.30;99.90;;;;;;4964915;29;20214;-86
2023/01/16 09:31:20;;;;;;;6.10;1.92;;;5.40;99.90;;;;;;4970546;29;20274;-83
2023/01/16 09:33:48;;;;;;;1.38;1.10;;;5.40;99.90;;;;;;4971451;28;20477;-82
2023/01/16 09:36:17;;;;;;;2.05;1.05;;;5.30;99.90;;;;;;4984026;28;20273;-82
2023/01/16 09:38:44;;;;;;;3.25;1.65;;;5.30;99.90;;;;;;4975901;28;20215;-85
2023/01/16 09:44:11;;;;;;;10.20;1.60;;;5.40;99.90;;;;;;4923553;29;20235;-84
2023/01/16 09:46:45;;;;;;;3.15;1.52;;;5.40;99.90;;;;;;4959186;29;20286;-85
2023/01/16 09:49:31;;;;;;;3.25;1.73;;;5.40;99.90;;;;;;4963548;28;20223;-82
2023/01/16 10:00:35;;;;;;;2.05;1.38;;;5.60;99.90;;;;;;4966970;28;20298;-85
2023/01/16 10:03:03;;;;;;;7.30;2.92;;;5.60;99.90;;;;;;4951707;29;20210;-86
2023/01/16 10:05:44;;;;;;;2.47;1.77;;;5.70;99.90;;;;;;4982542;28;20240;-84
2023/01/16 10:08:53;;;;;;;5.55;1.70;;;5.70;99.90;;;;;;4968791;28;20217;-82
2023/01/16 10:11:39;;;;;;;3.58;1.30;;;5.70;99.90;;;;;;4968338;28;20206;-83
2023/01/16 10:14:51;;;;;;;2.53;1.25;;;5.50;99.90;;;;;;4961892;29;20222;-86
2023/01/16 10:17:54;;;;;;;4.00;2.40;;;5.80;99.90;;;;;;4925384;29;20250;-85
2023/01/16 10:20:49;;;;;;;2.67;1.80;;;6.00;99.90;;;;;;4958592;29;20214;-84
2023/01/16 10:23:33;;;;;;;6.55;2.20;;;6.10;99.90;;;;;;4964312;23;20230;-85
2023/01/16 10:26:09;;;;;;;3.58;2.00;;;6.10;99.90;;;;;;4960125;29;20207;-85
2023/01/16 10:29:21;;;;;;;5.68;1.30;;;6.10;99.90;;;;;;4954875;29;20275;-87
2023/01/16 10:32:21;;;;;;;2.97;1.23;;;6.00;99.90;;;;;;4951931;29;20238;-88
2023/01/16 10:35:08;;;;;;;1.48;1.27;;;6.20;99.90;;;;;;4945154;29;20533;-86
2023/01/16 10:37:40;;;;;;;2.90;1.90;;;6.30;99.90;;;;;;4948004;29;20275;-84
2023/01/16 10:40:19;;;;;;;2.00;1.10;;;6.40;99.90;;;;;;4929650;29;20295;-88
2023/01/16 10:51:04;;;;;;;1.60;1.50;;;6.50;99.90;;;;;;4949762;29;20264;-82
2023/01/16 10:53:35;;;;;;;3.05;2.13;;;6.60;99.90;;;;;;4942208;29;20214;-86
2023/01/16 10:56:06;;;;;;;3.17;1.85;;;6.60;99.90;;;;;;4967192;28;20234;-87
2023/01/16 10:58:40;;;;;;;3.25;2.45;;;6.60;99.90;;;;;;4944862;29;20231;-84
2023/01/16 11:01:18;;;;;;;4.03;2.05;;;6.70;99.90;;;;;;4949231;28;20209;-82
2023/01/16 11:03:49;;;;;;;1.30;1.15;;;6.60;99.90;;;;;;4950357;28;20195;-83
2023/01/16 11:06:23;;;;;;;1.58;1.40;;;6.70;99.90;;;;;;4961164;29;20286;-86
2023/01/16 11:09:06;;;;;;;6.22;1.95;;;6.70;99.90;;;;;;4934330;29;20546;-86
2023/01/16 11:20:34;;;;;;;1.95;1.60;;;6.60;99.90;;;;;;4948003;29;20204;-83
2023/01/16 11:23:23;;;;;;;2.95;1.40;;;6.70;99.90;;;;;;4955063;29;20523;-88
2023/01/16 11:25:53;;;;;;;2.30;1.60;;;6.60;99.90;;;;;;4933118;29;20223;-85
2023/01/16 11:28:26;;;;;;;3.60;2.00;;;6.70;99.90;;;;;;4939865;29;20223;-89
2023/01/16 11:31:00;;;;;;;3.17;1.98;;;6.70;99.90;;;;;;4936909;29;20234;-84
2023/01/16 11:33:33;;;;;;;2.67;1.88;;;6.60;99.90;;;;;;4939859;29;20234;-87
2023/01/16 11:36:03;;;;;;;8.50;4.40;;;6.60;99.90;;;;;;4948489;23;20188;-88
2023/01/16 11:38:35;;;;;;;12.00;5.15;;;6.60;99.90;;;;;;4950850;29;20220;-86
2023/01/16 11:41:04;;;;;;;11.60;4.70;;;6.70;99.90;;;;;;4936722;29;20207;-85
2023/01/16 11:46:41;;;;;;;5.68;3.05;;;6.80;99.90;;;;;;4963182;29;20191;-89
2023/01/16 11:49:26;;;;;;;14.82;4.35;;;6.70;99.90;;;;;;4955655;28;20533;-88
2023/01/16 11:52:02;;;;;;;16.65;5.82;;;6.60;99.90;;;;;;4937862;29;20211;-87
2023/01/16 11:54:33;;;;;;;6.03;2.95;;;6.60;99.90;;;;;;4954486;28;20222;-91
2023/01/16 11:57:09;;;;;;;2.47;1.83;;;6.50;99.90;;;;;;5032090;23;20249;-88
2023/01/16 12:00:00;;;;;;;10.80;3.58;;;6.40;99.90;;;;;;4931447;29;20377;-85
2023/01/16 12:02:43;;;;;;;2.45;1.50;;;6.60;99.90;;;;;;5088819;23;20540;-88
2023/01/16 12:09:04;;;;;;;5.72;2.72;;;6.50;99.90;;;;;;4975743;28;20214;-88
2023/01/16 12:11:42;;;;;;;25.55;9.60;;;6.60;99.90;;;;;;5071223;23;20233;-86
2023/01/16 12:14:21;;;;;;;3.90;2.03;;;6.60;99.90;;;;;;5008152;28;20200;-88
2023/01/16 12:17:03;;;;;;;3.90;2.30;;;6.60;99.90;;;;;;4997371;28;20186;-87
2023/01/16 12:20:09;;;;;;;2.08;1.35;;;6.60;99.90;;;;;;4967390;28;20241;-91
2023/01/16 12:28:00;;;;;;;5.00;2.30;;;6.60;99.90;;;;;;4935005;29;20216;-88
2023/01/16 12:30:58;;;;;;;4.68;2.75;;;6.50;99.90;;;;;;4933631;29;20212;-83
2023/01/16 12:33:48;;;;;;;6.40;2.75;;;6.50;99.90;;;;;;4933156;29;20252;-87
2023/01/16 12:36:47;;;;;;;4.05;2.85;;;6.60;99.90;;;;;;4922293;29;20263;-88
2023/01/16 12:39:50;;;;;;;9.55;4.05;;;6.60;99.90;;;;;;4937378;29;20249;-87
2023/01/16 12:45:54;;;;;;;5.30;2.90;;;6.60;99.90;;;;;;4939517;29;20231;-86
2023/01/16 12:48:40;;;;;;;7.25;2.30;;;6.40;99.90;;;;;;5131936;23;20250;-88
2023/01/16 12:51:49;;;;;;;4.95;2.35;;;6.50;99.90;;;;;;4969969;29;20571;-89
2023/01/16 12:54:34;;;;;;;6.32;3.20;;;6.50;99.90;;;;;;4969421;28;20272;-85
2023/01/16 12:57:25;;;;;;;5.70;2.50;;;6.60;99.90;;;;;;4972326;28;20294;-88
2023/01/16 13:00:19;;;;;;;3.97;2.10;;;6.50;99.90;;;;;;4989524;28;20226;-88
2023/01/16 13:03:00;;;;;;;3.30;2.17;;;6.50;99.90;;;;;;4964669;28;20205;-87
2023/01/16 13:05:35;;;;;;;10.55;2.78;;;6.40;99.90;;;;;;4984471;28;20217;-88
2023/01/16 13:08:25;;;;;;;4.13;2.00;;;6.30;99.90;;;;;;5174215;23;20240;-84
2023/01/16 13:13:57;;;;;;;3.30;1.33;;;6.40;99.90;;;;;;5144397;23;20310;-87
2023/01/16 13:16:34;;;;;;;5.50;2.60;;;6.40;99.90;;;;;;5255821;23;20214;-90
2023/01/16 13:19:18;;;;;;;8.02;3.72;;;6.40;99.90;;;;;;4995011;23;20234;-90
2023/01/16 13:22:15;;;;;;;10.20;4.38;;;6.40;99.90;;;;;;4979301;28;20207;-88
2023/01/16 13:24:53;;;;;;;13.73;5.20;;;6.40;99.90;;;;;;4956796;28;20234;-86
2023/01/16 13:27:54;;;;;;;6.65;4.65;;;6.50;99.90;;;;;;4985802;28;20229;-89
2023/01/16 13:30:21;;;;;;;19.42;7.10;;;6.40;99.90;;;;;;4982640;28;20206;-85
2023/01/16 13:32:59;;;;;;;8.45;4.32;;;6.40;99.90;;;;;;4979003;28;20194;-87
2023/01/16 13:36:25;;;;;;;7.25;3.33;;;6.30;99.90;;;;;;4973912;29;20199;-87
2023/01/16 13:38:58;;;;;;;5.93;2.65;;;6.30;99.90;;;;;;4880280;29;20535;-87
2023/01/16 13:41:47;;;;;;;7.25;2.63;;;6.40;99.90;;;;;;4987900;28;20254;-87
2023/01/16 13:47:22;;;;;;;6.32;3.42;;;6.30;99.90;;;;;;5104166;23;20226;-89
2023/01/16 13:50:26;;;;;;;2.95;2.03;;;6.40;99.90;;;;;;4960659;28;20278;-90
2023/01/16 13:53:07;;;;;;;3.22;1.95;;;6.60;99.90;;;;;;5333686;23;20958;-89
2023/01/16 13:55:40;;;;;;;6.32;2.97;;;6.30;99.90;;;;;;5031798;23;20251;-89
2023/01/16 13:58:28;;;;;;;7.00;3.53;;;6.30;99.90;;;;;;4956842;28;20203;-90
2023/01/16 14:01:04;;;;;;;5.65;2.92;;;6.20;99.90;;;;;;4960163;29;20203;-91
2023/01/16 14:03:36;;;;;;;14.10;7.07;;;6.20;99.90;;;;;;4954471;29;20219;-87
2023/01/16 14:06:12;;;;;;;9.23;3.80;;;6.30;99.90;;;;;;4961249;29;20238;-85
2023/01/16 14:09:28;;;;;;;5.78;3.35;;;6.30;99.90;;;;;;4971199;28;20191;-90
2023/01/16 14:12:31;;;;;;;6.57;3.92;;;6.20;99.90;;;;;;4992819;23;20254;-88
2023/01/16 14:18:18;;;;;;;6.35;3.03;;;6.20;99.90;;;;;;4948712;29;20222;-84
2023/01/16 14:20:53;;;;;;;4.68;2.88;;;6.20;99.90;;;;;;4957430;29;20198;-90
2023/01/16 14:26:42;;;;;;;8.38;4.00;;;6.10;99.90;;;;;;4955304;29;20245;-88
2023/01/16 14:29:35;;;;;;;7.15;2.70;;;6.00;99.90;;;;;;5038580;23;20229;-87
2023/01/16 14:35:14;;;;;;;7.85;4.90;;;6.10;99.90;;;;;;5122350;23;20301;-89
2023/01/16 14:37:43;;;;;;;10.18;4.10;;;5.90;99.90;;;;;;4980494;28;20237;-87
2023/01/16 14:55:12;;;;;;;5.72;3.03;;;5.80;99.90;;;;;;4960913;28;20191;-88
2023/01/16 14:58:33;;;;;;;4.85;3.90;;;5.60;99.90;;;;;;5039309;23;20230;-88
2023/01/16 15:04:07;;;;;;;5.03;3.25;;;5.50;99.90;;;;;;5051038;23;20553;-89
2023/01/16 15:06:40;;;;;;;10.32;4.75;;;5.30;99.90;;;;;;4943422;28;20242;-90
2023/01/16 15:09:17;;;;;;;8.15;4.90;;;5.30;99.90;;;;;;4949913;29;20214;-87
2023/01/16 15:11:54;;;;;;;4.63;3.00;;;5.20;99.90;;;;;;4950239;28;20370;-90
2023/01/16 15:14:30;;;;;;;5.57;4.22;;;5.20;99.90;;;;;;4957061;28;20210;-91
2023/01/16 15:23:22;;;;;;;3.65;2.35;;;5.10;99.90;;;;;;5512924;23;21601;-90
2023/01/16 15:26:04;;;;;;;6.43;3.08;;;5.20;99.90;;;;;;5326922;23;20243;-89
2023/01/16 15:28:37;;;;;;;6.63;4.40;;;5.20;99.90;;;;;;4937058;29;20179;-88
2023/01/16 15:33:48;;;;;;;5.85;4.15;;;5.00;99.90;;;;;;5323822;23;20248;-88